createdAt,value
2023-03-13T00:01:18.781Z,72.78
2023-03-13T00:03:45.558Z,73.57
2023-03-13T00:06:11.904Z,73.87
2023-03-13T00:08:38.977Z,74.74
2023-03-13T00:11:07.604Z,73.68
2023-03-13T00:13:34.825Z,75.13
2023-03-13T00:16:07.200Z,76.53
2023-03-13T00:18:34.593Z,79.56
2023-03-13T00:21:08.555Z,80.87
2023-03-13T00:23:37.692Z,81.48
2023-03-13T00:26:06.791Z,81.67
2023-03-13T00:28:35.032Z,81.56
2023-03-13T00:31:15.055Z,80.76
2023-03-13T00:33:52.243Z,81.18
2023-03-13T00:36:24.734Z,80.54
2023-03-13T00:38:52.636Z,80.11
2023-03-13T00:41:26.965Z,80.71
2023-03-13T00:43:53.669Z,80.21
2023-03-13T00:46:23.209Z,80.18
2023-03-13T00:48:50.419Z,80.05
2023-03-13T00:51:18.919Z,80.14
2023-03-13T00:53:45.815Z,80.59
2023-03-13T00:56:14.514Z,80.91
2023-03-13T00:58:43.223Z,80.58
2023-03-13T01:01:16.363Z,79.97
2023-03-13T01:03:45.618Z,80.17
2023-03-13T01:06:15.548Z,80.32
2023-03-13T01:08:42.036Z,81.52
2023-03-13T01:11:11.471Z,83.42
2023-03-13T01:13:40.357Z,84.19
2023-03-13T01:16:09.911Z,84.75
2023-03-13T01:18:38.150Z,84.42
2023-03-13T01:21:05.499Z,87.68
2023-03-13T01:23:32.209Z,87.46
2023-03-13T01:25:59.276Z,88.64
2023-03-13T01:28:26.755Z,91.33
2023-03-13T01:30:53.289Z,93.57
2023-03-13T01:33:19.766Z,94.77
2023-03-13T01:35:46.356Z,97.15
2023-03-13T01:38:12.837Z,97.07
2023-03-13T01:40:45.028Z,96.75
2023-03-13T01:43:26.851Z,96.37
2023-03-13T01:45:56.385Z,97.83
2023-03-13T01:48:46.223Z,99.62
2023-03-13T01:51:33.946Z,98.04
2023-03-13T01:54:06.503Z,98.08
2023-03-13T01:56:51.301Z,99.33
2023-03-13T01:59:22.752Z,99.71
2023-03-13T02:01:52.377Z,100.00
2023-03-13T02:04:22.018Z,99.77
2023-03-13T02:06:54.648Z,100.00
2023-03-13T02:09:26.613Z,100.00
2023-03-13T02:11:58.895Z,100.00
2023-03-13T02:14:28.801Z,100.00
2023-03-13T02:16:56.026Z,100.00
2023-03-13T02:19:30.268Z,100.00
2023-03-13T02:22:16.820Z,100.00
2023-03-13T02:24:56.598Z,100.00
2023-03-13T02:27:23.540Z,100.00
2023-03-13T02:29:51.723Z,100.00
2023-03-13T02:32:18.202Z,100.00
2023-03-13T02:34:48.560Z,100.00
2023-03-13T02:37:15.477Z,100.00
2023-03-13T02:39:49.338Z,100.00
2023-03-13T02:42:19.177Z,100.00
2023-03-13T02:44:47.033Z,100.00
2023-03-13T02:47:21.543Z,100.00
2023-03-13T02:49:48.521Z,100.00
2023-03-13T02:52:20.627Z,100.00
2023-03-13T02:54:51.665Z,100.00
2023-03-13T02:57:18.129Z,100.00
2023-03-13T02:59:44.595Z,99.96
2023-03-13T03:02:10.979Z,100.00
2023-03-13T03:04:37.418Z,100.00
2023-03-13T03:07:03.922Z,100.00
2023-03-13T03:09:30.394Z,100.00
2023-03-13T03:11:59.082Z,99.57
2023-03-13T03:14:25.479Z,100.00
2023-03-13T03:16:51.967Z,100.00
2023-03-13T03:19:18.390Z,98.86
2023-03-13T03:21:45.084Z,100.00
2023-03-13T03:24:11.509Z,99.51
2023-03-13T03:26:38.088Z,98.55
2023-03-13T03:29:04.463Z,100.00
2023-03-13T03:31:31.112Z,98.52
2023-03-13T03:33:57.519Z,100.00
2023-03-13T03:36:24.348Z,100.00
2023-03-13T03:38:51.444Z,98.27
2023-03-13T03:41:19.143Z,100.00
2023-03-13T03:43:47.284Z,99.84
2023-03-13T03:46:16.076Z,98.06
2023-03-13T03:48:42.697Z,100.00
2023-03-13T03:51:09.118Z,100.00
2023-03-13T03:53:36.862Z,98.84
2023-03-13T03:56:03.414Z,98.89
2023-03-13T03:58:29.860Z,99.20
2023-03-13T04:00:57.832Z,98.73
2023-03-13T04:03:24.842Z,98.64
2023-03-13T04:05:51.457Z,99.65
2023-03-13T04:08:18.002Z,99.61
2023-03-13T04:10:44.407Z,100.00
2023-03-13T04:13:10.774Z,100.00
2023-03-13T04:15:41.466Z,100.00
2023-03-13T04:18:08.163Z,100.00
2023-03-13T04:20:35.084Z,98.49
2023-03-13T04:23:02.778Z,99.07
2023-03-13T04:25:29.536Z,99.80
2023-03-13T04:27:55.861Z,100.00
2023-03-13T04:30:22.697Z,98.65
2023-03-13T04:32:50.957Z,98.67
2023-03-13T04:35:17.508Z,99.34
2023-03-13T04:37:43.878Z,100.00
2023-03-13T04:40:12.518Z,99.60
2023-03-13T04:42:40.373Z,99.63
2023-03-13T04:45:07.999Z,99.75
2023-03-13T04:47:34.338Z,100.00
2023-03-13T04:50:00.712Z,100.00
2023-03-13T04:52:27.094Z,100.00
2023-03-13T04:54:53.474Z,100.00
2023-03-13T04:57:19.913Z,100.00
2023-03-13T04:59:46.369Z,100.00
2023-03-13T05:02:13.744Z,98.24
2023-03-13T05:04:40.737Z,99.40
2023-03-13T05:07:07.152Z,99.05
2023-03-13T05:09:33.537Z,99.40
2023-03-13T05:12:00.010Z,99.03
2023-03-13T05:14:26.488Z,98.11
2023-03-13T05:16:52.844Z,98.19
2023-03-13T05:19:19.303Z,97.72
2023-03-13T05:21:45.742Z,97.68
2023-03-13T05:24:12.078Z,98.05
2023-03-13T05:26:38.610Z,96.16
2023-03-13T05:29:05.058Z,95.11
2023-03-13T05:31:31.570Z,97.12
2023-03-13T05:33:58.010Z,98.70
2023-03-13T05:36:24.443Z,96.10
2023-03-13T05:38:50.877Z,97.09
2023-03-13T05:41:17.224Z,97.35
2023-03-13T05:43:43.738Z,97.05
2023-03-13T05:46:10.179Z,96.90
2023-03-13T05:48:36.577Z,95.62
2023-03-13T05:51:03.036Z,93.45
2023-03-13T05:53:29.426Z,95.39
2023-03-13T05:55:55.764Z,94.82
2023-03-13T05:58:22.121Z,94.79
2023-03-13T06:00:48.737Z,93.74
2023-03-13T06:03:15.175Z,93.12
2023-03-13T06:05:41.646Z,93.16
2023-03-13T06:08:08.223Z,91.70
2023-03-13T06:10:41.707Z,93.32
2023-03-13T06:13:19.284Z,92.56
2023-03-13T06:15:57.418Z,91.04
2023-03-13T06:18:24.806Z,91.50
2023-03-13T06:21:00.131Z,91.45
2023-03-13T06:23:29.004Z,89.91
2023-03-13T06:25:55.508Z,91.00
2023-03-13T06:28:22.257Z,89.49
2023-03-13T06:30:48.666Z,90.16
2023-03-13T06:33:15.185Z,89.71
2023-03-13T06:35:55.088Z,88.54
2023-03-13T06:38:22.033Z,88.06
2023-03-13T06:40:48.359Z,86.85
2023-03-13T06:43:14.802Z,87.65
2023-03-13T06:45:41.132Z,86.74
2023-03-13T06:48:07.509Z,87.26
2023-03-13T06:50:38.116Z,86.46
2023-03-13T06:53:04.795Z,86.47
2023-03-13T06:55:31.714Z,86.36
2023-03-13T06:57:58.295Z,84.48
2023-03-13T07:00:24.945Z,84.60
2023-03-13T07:02:51.597Z,84.63
2023-03-13T07:05:18.303Z,83.46
2023-03-13T07:07:44.630Z,83.44
2023-03-13T07:10:11.866Z,82.00
2023-03-13T07:12:38.346Z,82.58
2023-03-13T07:15:05.981Z,82.23
2023-03-13T07:17:32.510Z,81.93
2023-03-13T07:19:59.001Z,81.59
2023-03-13T07:22:25.409Z,79.78
2023-03-13T07:24:51.827Z,79.67
2023-03-13T07:27:20.866Z,78.92
2023-03-13T07:29:47.315Z,78.08
2023-03-13T07:32:14.567Z,77.97
2023-03-13T07:34:40.974Z,77.73
2023-03-13T07:37:07.340Z,77.12
2023-03-13T07:39:33.750Z,76.91
2023-03-13T07:42:00.128Z,76.64
2023-03-13T07:44:26.481Z,76.88
2023-03-13T07:46:52.859Z,76.76
2023-03-13T07:49:19.429Z,76.81
2023-03-13T07:51:48.059Z,76.46
2023-03-13T07:54:14.477Z,75.98
2023-03-13T07:56:40.836Z,75.97
2023-03-13T07:59:07.782Z,75.93
2023-03-13T08:01:34.508Z,75.61
2023-03-13T08:04:01.219Z,76.54
2023-03-13T08:06:32.612Z,76.07
2023-03-13T08:09:01.229Z,76.16
2023-03-13T08:11:28.383Z,77.74
2023-03-13T08:13:56.242Z,76.74
2023-03-13T08:16:28.029Z,76.02
2023-03-13T08:18:57.023Z,75.90
2023-03-13T08:21:28.751Z,77.29
2023-03-13T08:23:57.816Z,76.63
2023-03-13T08:26:26.816Z,76.29
2023-03-13T08:29:02.038Z,77.06
2023-03-13T08:31:34.642Z,76.71
2023-03-13T08:34:01.504Z,77.42
2023-03-13T08:36:31.530Z,77.97
2023-03-13T08:39:00.517Z,77.98
2023-03-13T08:41:29.765Z,78.70
2023-03-13T08:43:57.362Z,78.68
2023-03-13T08:46:24.917Z,78.29
2023-03-13T08:48:53.843Z,77.66
2023-03-13T08:51:23.011Z,78.50
2023-03-13T08:53:50.845Z,76.38
2023-03-13T08:56:19.572Z,76.66
2023-03-13T08:58:53.930Z,76.43
2023-03-13T09:01:22.183Z,76.54
2023-03-13T09:03:49.493Z,76.46
2023-03-13T09:06:16.584Z,75.85
2023-03-13T09:08:43.325Z,76.78
2023-03-13T09:11:16.595Z,75.91
2023-03-13T09:13:48.506Z,75.81
2023-03-13T09:16:26.429Z,74.75
2023-03-13T09:18:53.879Z,74.69
2023-03-13T09:21:22.840Z,76.84
2023-03-13T09:23:49.648Z,76.86
2023-03-13T09:26:17.528Z,78.71
2023-03-13T09:28:44.926Z,78.61
2023-03-13T09:31:14.422Z,77.31
2023-03-13T09:33:48.346Z,76.68
2023-03-13T09:36:14.845Z,76.34
2023-03-13T09:38:45.302Z,76.28
2023-03-13T09:41:17.826Z,75.97
2023-03-13T09:43:53.587Z,75.38
2023-03-13T09:46:29.763Z,74.60
2023-03-13T09:49:00.996Z,74.61
2023-03-13T09:51:38.179Z,72.85
2023-03-13T09:54:29.970Z,73.63
2023-03-13T09:57:18.369Z,73.23
2023-03-13T09:59:52.582Z,73.58
2023-03-13T10:02:32.736Z,72.22
2023-03-13T10:05:08.758Z,71.79
2023-03-13T10:07:36.133Z,70.98
2023-03-13T10:10:05.246Z,71.78
2023-03-13T10:12:41.460Z,70.07
2023-03-13T10:15:49.076Z,70.87
2023-03-13T10:18:23.716Z,70.35
2023-03-13T10:20:54.080Z,71.50
2023-03-13T10:23:24.516Z,71.07
2023-03-13T10:25:50.899Z,70.23
2023-03-13T10:28:22.792Z,70.17
2023-03-13T10:30:54.364Z,71.85
2023-03-13T10:33:26.621Z,71.35
2023-03-13T10:36:02.440Z,70.91
2023-03-13T10:38:29.426Z,71.69
2023-03-13T10:41:01.999Z,70.68
2023-03-13T10:43:29.656Z,69.81
2023-03-13T10:45:56.477Z,69.27
2023-03-13T10:48:30.680Z,68.34
2023-03-13T10:50:57.729Z,67.17
2023-03-13T10:53:30.390Z,67.00
2023-03-13T10:56:19.069Z,66.46
2023-03-13T10:58:51.736Z,65.98
2023-03-13T11:01:42.129Z,62.86
2023-03-13T11:04:42.205Z,62.37
2023-03-13T11:07:37.994Z,62.39
2023-03-13T11:10:13.451Z,59.26
2023-03-13T11:12:49.200Z,54.79
2023-03-13T11:15:19.557Z,53.95
2023-03-13T11:18:15.461Z,53.70
2023-03-13T11:20:45.225Z,53.82
2023-03-13T11:23:33.986Z,51.70
2023-03-13T11:26:27.343Z,51.91
2023-03-13T11:29:00.576Z,50.82
2023-03-13T11:31:40.468Z,49.37
2023-03-13T11:34:09.806Z,50.27
2023-03-13T11:36:55.503Z,52.84
2023-03-13T11:39:53.513Z,53.69
2023-03-13T11:42:50.847Z,54.84
2023-03-13T11:45:36.048Z,55.45
2023-03-13T11:48:15.581Z,54.15
2023-03-13T11:50:55.287Z,55.07
2023-03-13T11:53:42.360Z,56.36
2023-03-13T11:56:21.804Z,55.72
2023-03-13T11:59:04.352Z,55.53
2023-03-13T12:01:37.099Z,56.68
2023-03-13T12:04:17.394Z,57.00
2023-03-13T12:06:51.733Z,58.01
2023-03-13T12:09:21.036Z,58.03
2023-03-13T12:12:12.001Z,56.63
2023-03-13T12:15:01.732Z,56.00
2023-03-13T12:17:34.889Z,54.53
2023-03-13T12:20:09.277Z,54.29
2023-03-13T12:22:39.048Z,54.47
2023-03-13T12:25:14.900Z,56.76
2023-03-13T12:27:46.904Z,57.23
2023-03-13T12:30:52.472Z,56.70
2023-03-13T12:33:29.765Z,55.33
2023-03-13T12:36:14.210Z,54.20
2023-03-13T12:38:48.343Z,55.35
2023-03-13T12:41:41.866Z,56.11
2023-03-13T12:44:15.430Z,55.38
2023-03-13T12:47:03.323Z,54.76
2023-03-13T12:49:35.380Z,57.05
2023-03-13T12:52:38.930Z,57.50
2023-03-13T12:55:36.141Z,57.97
2023-03-13T12:58:21.394Z,56.10
2023-03-13T13:00:50.069Z,53.32
2023-03-13T13:03:30.600Z,55.05
2023-03-13T13:06:14.779Z,53.60
2023-03-13T13:08:44.144Z,53.10
2023-03-13T13:11:35.685Z,51.99
2023-03-13T13:14:23.001Z,51.29
2023-03-13T13:16:51.179Z,53.15
2023-03-13T13:19:23.574Z,51.36
2023-03-13T13:22:27.705Z,51.64
2023-03-13T13:25:01.214Z,52.21
2023-03-13T13:27:36.674Z,52.25
2023-03-13T13:30:18.563Z,53.52
2023-03-13T13:32:56.308Z,54.29
2023-03-13T13:35:30.206Z,54.23
2023-03-13T13:38:18.443Z,55.53
2023-03-13T13:41:02.723Z,56.26
2023-03-13T13:43:50.686Z,57.14
2023-03-13T13:46:35.506Z,57.64
2023-03-13T13:49:10.469Z,57.09
2023-03-13T13:51:39.406Z,56.99
2023-03-13T13:54:33.774Z,59.09
2023-03-13T13:57:21.563Z,57.69
2023-03-13T14:00:25.051Z,57.72
2023-03-13T14:02:53.888Z,58.21
2023-03-13T14:05:29.737Z,58.80
2023-03-13T14:08:14.265Z,60.10
2023-03-13T14:10:49.095Z,59.39
2023-03-13T14:13:19.303Z,59.65
2023-03-13T14:15:52.808Z,59.10
2023-03-13T14:19:30.705Z,59.41
2023-03-13T14:22:00.292Z,60.94
2023-03-13T14:24:33.287Z,61.85
2023-03-13T14:27:00.274Z,62.05
2023-03-13T14:29:32.065Z,61.36
2023-03-13T14:31:59.829Z,61.19
2023-03-13T14:34:32.536Z,61.14
2023-03-13T14:37:16.766Z,61.68
2023-03-13T14:39:48.208Z,62.58
2023-03-13T14:42:17.244Z,62.14
2023-03-13T14:44:59.774Z,63.17
2023-03-13T14:47:31.629Z,63.28
2023-03-13T14:50:04.463Z,63.66
2023-03-13T14:52:32.703Z,63.09
2023-03-13T14:55:05.862Z,62.93
2023-03-13T14:57:33.426Z,61.61
2023-03-13T15:00:29.142Z,60.53
2023-03-13T15:03:22.404Z,61.32
2023-03-13T15:06:04.297Z,61.55
2023-03-13T15:08:33.529Z,61.35
2023-03-13T15:11:00.630Z,61.70
2023-03-13T15:13:31.900Z,60.28
2023-03-13T15:15:58.908Z,58.65
2023-03-13T15:18:30.816Z,58.49
2023-03-13T15:21:24.254Z,57.75
2023-03-13T15:24:12.934Z,58.40
2023-03-13T15:26:39.572Z,57.63
2023-03-13T15:29:06.178Z,58.36
2023-03-13T15:31:32.901Z,58.42
2023-03-13T15:34:01.093Z,56.63
2023-03-13T15:36:29.374Z,55.96
2023-03-13T15:38:56.261Z,54.36
2023-03-13T15:41:23.274Z,54.85
2023-03-13T15:43:55.265Z,55.15
2023-03-13T15:46:22.353Z,54.14
2023-03-13T15:48:49.529Z,53.76
2023-03-13T15:51:17.189Z,54.03
2023-03-13T15:53:48.331Z,53.60
2023-03-13T15:56:25.621Z,52.08
2023-03-13T15:58:55.006Z,51.15
2023-03-13T16:01:25.703Z,51.32
2023-03-13T16:03:52.713Z,50.50
2023-03-13T16:06:28.260Z,50.71
2023-03-13T16:09:00.195Z,48.87
2023-03-13T16:11:36.182Z,48.79
2023-03-13T16:14:05.596Z,49.46
2023-03-13T16:16:37.558Z,50.58
2023-03-13T16:19:06.612Z,51.16
2023-03-13T16:21:34.843Z,52.84
2023-03-13T16:24:02.110Z,52.95
2023-03-13T16:26:32.196Z,53.93
2023-03-13T16:28:58.859Z,53.83
2023-03-13T16:31:36.754Z,54.58
2023-03-13T16:34:03.526Z,54.37
2023-03-13T16:36:33.639Z,54.49
2023-03-13T16:39:02.432Z,54.37
2023-03-13T16:41:32.948Z,55.20
2023-03-13T16:44:00.476Z,55.04
2023-03-13T16:46:36.301Z,55.15
2023-03-13T16:49:04.504Z,55.37
2023-03-13T16:51:31.300Z,55.64
2023-03-13T16:54:01.980Z,55.65
2023-03-13T16:56:33.908Z,55.57
2023-03-13T16:59:02.135Z,57.95
2023-03-13T17:01:29.019Z,57.15
2023-03-13T17:03:57.311Z,56.99
2023-03-13T17:06:31.876Z,57.21
2023-03-13T17:08:58.752Z,58.64
2023-03-13T17:11:25.251Z,58.62
2023-03-13T17:13:53.092Z,59.76
2023-03-13T17:16:19.447Z,59.29
2023-03-13T17:18:48.599Z,59.63
2023-03-13T17:21:18.441Z,59.75
2023-03-13T17:23:45.641Z,58.98
2023-03-13T17:26:21.527Z,58.89
2023-03-13T17:28:49.566Z,59.64
2023-03-13T17:31:17.217Z,59.33
2023-03-13T17:33:44.360Z,58.89
2023-03-13T17:36:31.164Z,58.03
2023-03-13T17:39:00.088Z,58.77
2023-03-13T17:41:29.045Z,58.43
2023-03-13T17:43:56.002Z,57.69
2023-03-13T17:46:25.145Z,58.28
2023-03-13T17:48:53.567Z,58.05
2023-03-13T17:51:29.289Z,58.47
2023-03-13T17:53:58.100Z,57.62
2023-03-13T17:56:36.198Z,57.99
2023-03-13T17:59:04.234Z,57.98
2023-03-13T18:01:33.125Z,58.35
2023-03-13T18:04:00.127Z,58.53
2023-03-13T18:06:29.837Z,58.71
2023-03-13T18:08:58.749Z,58.70
2023-03-13T18:11:26.746Z,58.67
2023-03-13T18:13:53.660Z,59.56
2023-03-13T18:16:40.391Z,59.75
2023-03-13T18:19:22.666Z,59.46
2023-03-13T18:21:51.139Z,59.00
2023-03-13T18:24:17.811Z,60.03
2023-03-13T18:26:46.412Z,59.55
2023-03-13T18:29:26.046Z,59.52
2023-03-13T18:31:55.138Z,59.96
2023-03-13T18:34:23.090Z,59.65
2023-03-13T18:36:49.617Z,59.37
2023-03-13T18:39:17.958Z,60.55
2023-03-13T18:41:45.314Z,59.91
2023-03-13T18:44:22.877Z,59.85
2023-03-13T18:46:50.668Z,59.79
2023-03-13T18:49:21.498Z,59.80
2023-03-13T18:51:49.265Z,60.40
2023-03-13T18:54:15.812Z,60.42
2023-03-13T18:56:44.099Z,60.36
2023-03-13T18:59:13.676Z,60.54
2023-03-13T19:01:40.206Z,61.47
2023-03-13T19:04:06.698Z,61.46
2023-03-13T19:06:35.487Z,62.11
2023-03-13T19:09:41.698Z,61.94
2023-03-13T19:12:05.086Z,62.91
2023-03-13T19:14:31.434Z,62.13
2023-03-13T19:16:58.180Z,62.68
2023-03-13T19:19:25.750Z,62.84
2023-03-13T19:21:56.496Z,63.82
2023-03-13T19:24:26.435Z,63.98
2023-03-13T19:26:58.335Z,63.09
2023-03-13T19:29:27.162Z,62.52
2023-03-13T19:31:54.644Z,63.50
2023-03-13T19:34:21.766Z,63.05
2023-03-13T19:36:49.579Z,62.71
2023-03-13T19:39:24.803Z,62.82
2023-03-13T19:41:53.424Z,63.39
2023-03-13T19:44:21.140Z,63.14
2023-03-13T19:46:48.345Z,62.85
2023-03-13T19:49:18.194Z,62.62
2023-03-13T19:51:44.592Z,63.07
2023-03-13T19:54:12.124Z,63.22
2023-03-13T19:56:44.398Z,63.04
2023-03-13T19:59:29.186Z,63.32
2023-03-13T20:01:55.989Z,63.26
2023-03-13T20:04:25.554Z,64.06
2023-03-13T20:06:52.008Z,63.48
2023-03-13T20:09:20.437Z,63.67
2023-03-13T20:11:46.847Z,63.73
2023-03-13T20:14:13.357Z,64.06
2023-03-13T20:16:40.022Z,63.67
2023-03-13T20:19:06.504Z,64.73
2023-03-13T20:21:35.795Z,65.07
2023-03-13T20:24:02.909Z,64.83
2023-03-13T20:26:29.484Z,64.71
2023-03-13T20:28:56.568Z,65.10
2023-03-13T20:31:28.068Z,65.06
2023-03-13T20:33:56.745Z,65.24
2023-03-13T20:36:24.458Z,65.10
2023-03-13T20:38:51.535Z,65.42
2023-03-13T20:41:21.048Z,65.23
2023-03-13T20:43:47.534Z,65.67
2023-03-13T20:46:17.207Z,65.43
2023-03-13T20:48:47.517Z,65.53
2023-03-13T20:51:14.553Z,65.79
2023-03-13T20:53:41.958Z,65.96
2023-03-13T20:56:10.078Z,66.17
2023-03-13T20:58:36.822Z,66.84
2023-03-13T21:01:05.159Z,66.76
2023-03-13T21:03:35.775Z,67.31
2023-03-13T21:06:16.743Z,67.53
2023-03-13T21:08:45.709Z,67.09
2023-03-13T21:11:21.638Z,67.62
2023-03-13T21:13:49.173Z,67.74
2023-03-13T21:16:16.688Z,67.92
2023-03-13T21:18:43.401Z,68.46
2023-03-13T21:21:14.817Z,68.18
2023-03-13T21:23:41.193Z,67.98
2023-03-13T21:26:07.592Z,68.11
2023-03-13T21:28:34.046Z,68.28
2023-03-13T21:31:08.317Z,68.77
2023-03-13T21:33:37.653Z,68.76
2023-03-13T21:36:10.052Z,68.68
2023-03-13T21:38:38.236Z,68.32
2023-03-13T21:41:13.442Z,69.34
2023-03-13T21:43:45.613Z,69.41
2023-03-13T21:46:14.669Z,68.96
2023-03-13T21:48:42.958Z,69.33
2023-03-13T21:51:10.533Z,69.43
2023-03-13T21:53:38.407Z,69.47
2023-03-13T21:56:05.493Z,69.72
2023-03-13T21:58:31.916Z,69.57
2023-03-13T22:00:59.908Z,69.60
2023-03-13T22:03:29.205Z,69.61
2023-03-13T22:05:58.143Z,69.21
2023-03-13T22:08:24.914Z,69.30
2023-03-13T22:10:54.768Z,69.66
2023-03-13T22:13:21.560Z,69.05
2023-03-13T22:15:49.201Z,68.50
2023-03-13T22:18:16.649Z,69.13
2023-03-13T22:20:45.590Z,69.27
2023-03-13T22:23:12.501Z,69.02
2023-03-13T22:25:48.133Z,68.51
2023-03-13T22:28:15.020Z,68.57
2023-03-13T22:30:46.082Z,68.85
2023-03-13T22:33:12.604Z,68.97
2023-03-13T22:35:39.171Z,69.40
2023-03-13T22:38:05.740Z,68.93
2023-03-13T22:40:32.910Z,68.65
2023-03-13T22:42:59.769Z,68.49
2023-03-13T22:45:26.422Z,68.37
2023-03-13T22:47:53.159Z,68.37
2023-03-13T22:50:20.920Z,68.93
2023-03-13T22:52:47.375Z,68.88
2023-03-13T22:55:13.832Z,68.82
2023-03-13T22:57:40.697Z,69.20
2023-03-13T23:00:09.152Z,69.52
2023-03-13T23:02:37.878Z,69.01
2023-03-13T23:05:04.584Z,69.82
2023-03-13T23:07:33.296Z,69.21
2023-03-13T23:10:03.736Z,70.16
2023-03-13T23:12:30.768Z,70.21
2023-03-13T23:15:01.568Z,69.93
2023-03-13T23:17:32.322Z,70.63
2023-03-13T23:20:01.210Z,70.44
2023-03-13T23:22:32.656Z,69.73
2023-03-13T23:24:59.039Z,69.41
2023-03-13T23:27:25.425Z,70.21
2023-03-13T23:29:55.297Z,69.21
2023-03-13T23:32:22.523Z,69.80
2023-03-13T23:34:48.987Z,69.41
2023-03-13T23:37:15.452Z,69.74
2023-03-13T23:39:41.930Z,69.08
2023-03-13T23:42:11.241Z,69.68
2023-03-13T23:44:37.715Z,68.68
2023-03-13T23:47:04.273Z,68.40
2023-03-13T23:49:34.390Z,68.93
2023-03-13T23:52:01.864Z,69.13
2023-03-13T23:54:28.376Z,68.77
2023-03-13T23:56:54.827Z,72.73
2023-03-13T23:59:22.318Z,81.22
